createdAt,value
2019-05-11T13:36:23.663Z,22.20
2019-05-11T13:38:53.273Z,22.20
2019-05-11T13:41:22.572Z,22.10
2019-05-11T13:43:51.870Z,22.10
2019-05-11T13:46:21.480Z,22.20
2019-05-11T13:48:50.706Z,22.30
2019-05-11T13:51:20.700Z,22.30
2019-05-11T13:53:49.650Z,22.40
2019-05-11T13:56:19.092Z,22.40
2019-05-11T13:58:48.845Z,22.40
2019-05-11T14:01:18.578Z,22.50
2019-05-11T14:03:51.190Z,22.60
2019-05-11T14:06:20.248Z,22.60
2019-05-11T14:08:50.116Z,22.70
2019-05-11T14:11:19.399Z,22.70
2019-05-11T14:13:48.699Z,22.80
2019-05-11T14:16:18.859Z,22.60
2019-05-11T14:18:48.898Z,22.60
2019-05-11T14:21:18.746Z,22.50
2019-05-11T14:23:48.577Z,22.50
2019-05-11T14:26:19.159Z,22.50
2019-05-11T14:28:48.802Z,22.50
2019-05-11T14:31:18.928Z,22.60
2019-05-11T14:33:48.885Z,22.70
2019-05-11T14:36:18.543Z,22.70
2019-05-11T14:38:48.794Z,22.60
2019-05-11T14:41:18.989Z,22.60
2019-05-11T14:43:49.048Z,22.50
2019-05-11T14:46:19.125Z,22.50
2019-05-11T14:48:48.308Z,22.40
2019-05-11T14:51:18.648Z,22.40
2019-05-11T14:53:48.156Z,22.30
2019-05-11T14:56:19.211Z,22.30
2019-05-11T14:58:49.211Z,22.30
2019-05-11T15:01:19.535Z,22.20
2019-05-11T15:03:48.814Z,22.10
2019-05-11T15:06:19.161Z,22.00
2019-05-11T15:08:48.973Z,22.00
2019-05-11T15:11:19.120Z,21.80
2019-05-11T15:13:48.840Z,21.70
2019-05-11T15:16:18.907Z,21.70
2019-05-11T15:18:48.701Z,21.90
2019-05-11T15:21:18.959Z,22.00
2019-05-11T15:23:50.295Z,21.90
2019-05-11T15:26:19.299Z,21.90
2019-05-11T15:29:01.357Z,22.10
2019-05-11T15:31:41.676Z,22.20
2019-05-11T15:34:18.296Z,22.40
2019-05-11T15:36:54.662Z,22.50
2019-05-11T15:39:28.922Z,22.60
2019-05-11T15:42:14.594Z,22.70
2019-05-11T15:44:49.128Z,22.80
2019-05-11T15:47:30.613Z,22.90
2019-05-11T15:50:08.119Z,22.90
2019-05-11T15:52:48.469Z,23.00
2019-05-11T15:55:27.632Z,22.90
2019-05-11T15:57:59.422Z,23.00
2019-05-11T16:00:39.775Z,23.00
2019-05-11T16:03:14.338Z,23.00
2019-05-11T16:05:47.914Z,22.90
2019-05-11T16:08:23.614Z,22.90
2019-05-11T16:11:01.806Z,23.00
2019-05-11T16:13:42.075Z,22.90
2019-05-11T16:16:18.014Z,22.90
2019-05-11T16:19:06.844Z,22.90
2019-05-11T16:21:32.190Z,22.90
2019-05-11T16:24:08.038Z,22.90
2019-05-11T16:26:40.205Z,22.70
2019-05-11T16:29:11.495Z,22.60
2019-05-11T16:31:40.735Z,22.60
2019-05-11T16:34:10.957Z,22.60
2019-05-11T16:36:41.485Z,22.70
2019-05-11T16:39:11.422Z,22.90
2019-05-11T16:41:41.227Z,23.00
2019-05-11T16:44:11.790Z,23.00
2019-05-11T16:46:40.838Z,23.10
2019-05-11T16:49:24.834Z,23.10
2019-05-11T16:51:40.360Z,23.20
2019-05-11T16:54:09.352Z,23.20
2019-05-11T16:56:38.458Z,23.20
2019-05-11T16:59:08.178Z,23.20
2019-05-11T17:01:37.877Z,23.20
2019-05-11T17:04:07.476Z,23.20
2019-05-11T17:06:38.564Z,23.20
2019-05-11T17:09:08.809Z,23.30
2019-05-11T17:11:38.633Z,23.30
2019-05-11T17:14:08.447Z,23.30
2019-05-11T17:16:38.492Z,23.30
2019-05-11T17:19:08.315Z,23.30
2019-05-11T17:21:38.271Z,23.40
2019-05-11T17:24:07.419Z,23.40
2019-05-11T17:26:38.369Z,23.40
2019-05-11T17:29:07.032Z,23.50
2019-05-11T17:31:37.602Z,23.50
2019-05-11T17:34:08.777Z,23.60
2019-05-11T17:36:36.991Z,23.60
2019-05-11T17:39:07.824Z,23.70
2019-05-11T17:41:38.685Z,23.70
2019-05-11T17:44:08.048Z,23.70
2019-05-11T17:46:38.433Z,23.70
2019-05-11T17:49:09.022Z,23.70
2019-05-11T17:51:38.128Z,23.70
2019-05-11T17:54:07.917Z,23.70
2019-05-11T17:56:38.810Z,23.70
2019-05-11T17:59:09.695Z,23.70
2019-05-11T18:01:42.272Z,23.70
2019-05-11T18:04:11.573Z,23.60
2019-05-11T18:06:40.574Z,23.60
2019-05-11T18:09:09.665Z,23.60
2019-05-11T18:11:39.781Z,23.10
2019-05-11T18:14:08.775Z,22.60
2019-05-11T18:16:37.778Z,22.30
2019-05-11T18:19:08.579Z,22.10
2019-05-11T18:21:38.673Z,22.00
2019-05-11T18:24:09.174Z,21.90
2019-05-11T18:26:38.665Z,21.80
2019-05-11T18:29:07.658Z,21.80
2019-05-11T18:31:38.298Z,21.60
2019-05-11T18:34:09.011Z,21.50
2019-05-11T18:36:39.237Z,21.40
2019-05-11T18:39:08.535Z,21.40
2019-05-11T18:41:39.110Z,21.40
2019-05-11T18:44:08.323Z,21.50
2019-05-11T18:46:38.833Z,21.40
2019-05-11T18:49:08.504Z,21.20
2019-05-11T18:51:37.845Z,21.00
2019-05-11T18:54:09.330Z,21.10
2019-05-11T18:56:38.219Z,21.10
2019-05-11T18:59:08.808Z,21.00
2019-05-11T19:01:38.175Z,20.80
2019-05-11T19:04:07.818Z,20.80
2019-05-11T19:06:37.879Z,20.80
2019-05-11T19:09:08.125Z,20.70
2019-05-11T19:11:38.273Z,20.70
2019-05-11T19:14:08.576Z,20.90
2019-05-11T19:16:39.041Z,20.80
2019-05-11T19:19:08.216Z,20.70
2019-05-11T19:21:39.521Z,20.90
2019-05-11T19:24:09.404Z,21.10
2019-05-11T19:26:44.122Z,21.30
2019-05-11T19:29:14.637Z,21.40
2019-05-11T19:31:51.887Z,21.50
2019-05-11T19:34:35.475Z,21.60
2019-05-11T19:37:11.672Z,21.60
2019-05-11T19:39:50.786Z,21.70
2019-05-11T19:42:30.349Z,21.70
2019-05-11T19:45:06.706Z,21.80
2019-05-11T19:47:37.829Z,21.80
2019-05-11T19:50:08.743Z,21.80
2019-05-11T19:52:44.824Z,21.90
2019-05-11T19:55:18.438Z,21.90
2019-05-11T19:57:51.473Z,21.90
2019-05-11T20:00:25.366Z,21.90
2019-05-11T20:02:55.019Z,21.90
2019-05-11T20:05:24.919Z,22.00
2019-05-11T20:07:55.120Z,22.00
2019-05-11T20:10:24.418Z,22.00
2019-05-11T20:12:54.331Z,22.00
2019-05-11T20:15:24.816Z,22.00
2019-05-11T20:17:54.775Z,22.00
2019-05-11T20:20:24.383Z,22.00
2019-05-11T20:22:53.995Z,22.10
2019-05-11T20:25:23.290Z,22.10
2019-05-11T20:27:53.059Z,22.10
2019-05-11T20:30:23.131Z,22.10
2019-05-11T20:32:52.434Z,22.10
2019-05-11T20:35:22.338Z,22.10
2019-05-11T20:37:51.961Z,22.20
2019-05-11T20:40:22.165Z,22.20
2019-05-11T20:42:51.379Z,22.10
2019-05-11T20:45:20.731Z,22.10
2019-05-11T20:47:50.671Z,22.10
2019-05-11T20:50:19.686Z,22.00
2019-05-11T20:52:49.595Z,22.00
2019-05-11T20:55:18.658Z,21.90
2019-05-11T20:57:50.342Z,21.80
2019-05-11T21:00:19.653Z,21.80
2019-05-11T21:02:52.647Z,21.70
2019-05-11T21:05:22.233Z,21.70
2019-05-11T21:07:52.456Z,21.50
2019-05-11T21:10:22.373Z,21.60
2019-05-11T21:12:51.978Z,21.70
2019-05-11T21:15:21.997Z,21.70
2019-05-11T21:17:52.362Z,21.60
2019-05-11T21:20:22.337Z,21.50
2019-05-11T21:22:51.323Z,21.50
2019-05-11T21:25:21.486Z,21.50
2019-05-11T21:27:50.549Z,21.50
2019-05-11T21:30:19.548Z,21.50
2019-05-11T21:32:51.136Z,21.50
2019-05-11T21:35:19.981Z,21.60
2019-05-11T21:37:49.954Z,21.60
2019-05-11T21:40:19.810Z,21.70
2019-05-11T21:42:50.204Z,21.70
2019-05-11T21:45:19.035Z,21.60
2019-05-11T21:47:50.336Z,21.60
2019-05-11T21:50:23.981Z,21.60
2019-05-11T21:52:54.581Z,21.50
2019-05-11T21:55:23.907Z,21.80
2019-05-11T21:57:53.208Z,21.90
2019-05-11T22:00:25.054Z,22.10
2019-05-11T22:02:56.726Z,22.20
2019-05-11T22:05:25.729Z,22.20
2019-05-11T22:07:55.345Z,22.30
2019-05-11T22:10:25.169Z,22.40
2019-05-11T22:12:55.291Z,22.30
2019-05-11T22:15:24.778Z,22.20
2019-05-11T22:17:54.368Z,22.10
2019-05-11T22:20:28.616Z,22.10
2019-05-11T22:22:58.161Z,22.10
2019-05-11T22:25:28.758Z,22.00
2019-05-11T22:28:00.805Z,22.00
2019-05-11T22:30:30.087Z,22.00
2019-05-11T22:32:59.694Z,22.20
2019-05-11T22:35:29.608Z,22.00
2019-05-11T22:37:59.326Z,22.00
2019-05-11T22:40:28.365Z,21.90
2019-05-11T22:43:01.112Z,22.10
2019-05-11T22:45:28.962Z,22.30
2019-05-11T22:47:58.649Z,22.40
2019-05-11T22:50:29.018Z,22.50
2019-05-11T22:52:58.400Z,22.50
2019-05-11T22:55:28.675Z,22.60
2019-05-11T22:57:58.036Z,22.80
2019-05-11T23:00:39.528Z,22.80
2019-05-11T23:03:11.012Z,22.90
2019-05-11T23:05:40.873Z,22.80
2019-05-11T23:08:10.175Z,22.60
2019-05-11T23:10:40.785Z,22.50
2019-05-11T23:13:11.663Z,22.50
2019-05-11T23:15:40.840Z,22.40
2019-05-11T23:18:10.147Z,22.40
2019-05-11T23:20:40.669Z,22.40
2019-05-11T23:23:10.786Z,22.40
2019-05-11T23:25:40.807Z,22.40
2019-05-11T23:28:11.387Z,22.40
2019-05-11T23:30:41.873Z,22.30
2019-05-11T23:33:13.316Z,22.30
2019-05-11T23:35:42.615Z,22.30
2019-05-11T23:38:12.918Z,22.30
2019-05-11T23:40:42.136Z,22.30
2019-05-11T23:43:12.051Z,22.20
2019-05-11T23:45:41.353Z,22.20
2019-05-11T23:48:10.449Z,22.30
2019-05-11T23:50:39.866Z,22.20
2019-05-11T23:53:10.265Z,22.20
2019-05-11T23:55:39.486Z,22.20
2019-05-11T23:58:09.131Z,22.20
